Time;durP1;ratioP1;P1;durP2;ratioP2;P2;SDS_P1;SDS_P2;PMS_P1;PMS_P2;Temp;Humidity;BMP_temperature;BMP_pressure;BME280_temperature;BME280_humidity;BME280_pressure;Samples;Min_cycle;Max_cycle;Signal;HPM_P1;HPM_P2
2021/07/14 00:01:21;;;;;;;34.55;21.58;;;;;;;19.09;100.00;101106.75;3583375;39;20042;-64
2021/07/14 00:03:47;;;;;;;35.05;21.35;;;;;;;19.09;100.00;101112.22;3584735;39;20063;-65
2021/07/14 00:06:14;;;;;;;32.35;19.88;;;;;;;19.08;100.00;101107.81;3592608;39;20039;-63
2021/07/14 00:08:40;;;;;;;41.67;22.98;;;;;;;19.13;100.00;101109.97;3589024;39;20817;-63
2021/07/14 00:11:07;;;;;;;37.22;21.05;;;;;;;19.16;100.00;101105.00;3585267;39;20047;-64
2021/07/14 00:13:36;;;;;;;35.83;21.77;;;;;;;19.12;100.00;101098.19;3584090;39;20033;-62
2021/07/14 00:24:03;;;;;;;36.83;22.35;;;;;;;19.00;100.00;101083.34;3585899;39;20360;-63
2021/07/14 00:26:30;;;;;;;;;;;;;;;19.03;100.00;101088.41;3588331;39;20779;-64
2021/07/14 00:28:56;;;;;;;38.47;23.52;;;;;;;19.03;100.00;101088.41;3586819;39;19927;-63
2021/07/14 00:31:23;;;;;;;41.47;23.33;;;;;;;19.06;100.00;101090.78;3590869;39;20037;-63
2021/07/14 00:33:49;;;;;;;37.35;22.45;;;;;;;18.99;100.00;101082.50;3584756;39;20067;-63
2021/07/14 00:36:17;;;;;;;40.05;22.65;;;;;;;19.02;100.00;101092.16;3585327;39;20035;-63
2021/07/14 00:38:43;;;;;;;33.78;23.40;;;;;;;19.10;100.00;101094.81;3587915;39;20058;-63
2021/07/14 00:41:10;;;;;;;33.80;22.05;;;;;;;19.07;100.00;101092.47;3591991;39;20393;-63
2021/07/14 00:43:36;;;;;;;35.88;22.30;;;;;;;19.10;100.00;101094.00;3587698;39;20028;-63
2021/07/14 00:46:18;;;;;;;38.53;21.70;;;;;;;19.05;100.00;101081.75;3587538;39;20031;-64
2021/07/14 00:48:46;;;;;;;35.75;22.65;;;;;;;19.03;100.00;101072.88;3589819;39;20047;-65
2021/07/14 00:51:12;;;;;;;37.88;23.20;;;;;;;18.97;100.00;101075.53;3590094;39;20058;-63
2021/07/14 00:53:41;;;;;;;37.40;23.58;;;;;;;19.00;100.00;101073.25;3593098;39;20059;-63
2021/07/14 00:56:07;;;;;;;35.05;23.15;;;;;;;19.01;100.00;101079.59;3585054;39;20048;-63
2021/07/14 00:58:34;;;;;;;35.53;22.77;;;;;;;19.02;100.00;101075.81;3593555;39;20032;-64
2021/07/14 01:01:01;;;;;;;33.97;21.88;;;;;;;19.02;100.00;101073.06;3586241;39;20032;-63
2021/07/14 01:03:32;;;;;;;31.10;22.33;;;;;;;19.04;100.00;101071.84;3587660;39;20047;-64
2021/07/14 01:06:02;;;;;;;35.08;23.42;;;;;;;18.99;100.00;101066.13;3588806;39;20039;-63
2021/07/14 01:08:39;;;;;;;37.88;22.73;;;;;;;19.01;100.00;101071.41;3589330;39;20121;-63
2021/07/14 01:11:12;;;;;;;32.45;23.60;;;;;;;18.96;100.00;101087.47;3591091;39;20298;-63
2021/07/14 01:13:43;;;;;;;36.53;23.52;;;;;;;18.94;100.00;101095.00;3594917;39;20048;-65
2021/07/14 01:16:15;;;;;;;34.90;22.92;;;;;;;19.02;100.00;101087.59;3587126;39;20038;-64
2021/07/14 01:18:48;;;;;;;29.30;22.42;;;;;;;19.07;100.00;101090.59;3586307;39;20394;-63
2021/07/14 01:21:18;;;;;;;31.58;22.08;;;;;;;19.11;100.00;101102.00;3585045;39;20913;-63
2021/07/14 01:23:52;;;;;;;31.48;21.17;;;;;;;19.10;100.00;101092.09;3585909;39;20036;-64
2021/07/14 01:26:37;;;;;;;29.67;21.98;;;;;;;19.07;100.00;101100.66;3585144;39;20031;-66
2021/07/14 01:29:08;;;;;;;30.85;22.58;;;;;;;19.00;100.00;101088.78;3585758;39;20097;-65
2021/07/14 01:31:36;;;;;;;32.63;22.70;;;;;;;19.02;100.00;101089.44;3587391;39;20040;-65
2021/07/14 01:34:06;;;;;;;33.83;22.75;;;;;;;19.08;100.00;101086.81;3587039;39;20184;-64
2021/07/14 01:36:34;;;;;;;29.13;22.25;;;;;;;19.08;100.00;101089.56;3588618;39;20043;-63
2021/07/14 01:39:01;;;;;;;30.13;23.13;;;;;;;18.98;100.00;101093.59;3589103;39;20385;-66
2021/07/14 01:41:34;;;;;;;30.88;22.20;;;;;;;18.99;100.00;101098.00;3584745;39;20580;-63
2021/07/14 01:44:02;;;;;;;32.88;22.23;;;;;;;18.96;100.00;101092.91;3587609;39;20073;-63
2021/07/14 01:46:32;;;;;;;34.92;22.95;;;;;;;18.89;100.00;101093.66;3588154;39;20060;-63
2021/07/14 01:49:03;;;;;;;37.95;24.23;;;;;;;18.84;100.00;101096.06;3587566;39;20038;-64
2021/07/14 01:51:32;;;;;;;31.52;21.92;;;;;;;18.87;100.00;101082.09;3586400;39;20048;-64
2021/07/14 01:54:04;;;;;;;30.23;22.10;;;;;;;18.98;100.00;101090.88;3589540;39;20057;-64
2021/07/14 01:56:33;;;;;;;41.40;26.23;;;;;;;18.82;100.00;101089.94;3589526;39;20649;-64
2021/07/14 01:59:01;;;;;;;;;;;;;;;18.83;100.00;101088.06;3587129;39;20109;-64
2021/07/14 02:01:30;;;;;;;34.58;24.58;;;;;;;18.90;100.00;101084.47;3597840;39;19979;-63
2021/07/14 02:06:47;;;;;;;33.95;23.52;;;;;;;18.86;100.00;101082.25;3591530;39;20051;-62
2021/07/14 02:09:14;;;;;;;31.67;23.25;;;;;;;18.84;100.00;101076.97;3596330;39;20039;-63
2021/07/14 02:11:44;;;;;;;34.97;24.67;;;;;;;18.85;100.00;101084.13;3594721;39;20029;-63
2021/07/14 02:14:14;;;;;;;33.53;23.50;;;;;;;18.85;100.00;101077.84;3582036;39;20051;-63
2021/07/14 02:16:42;;;;;;;29.90;22.13;;;;;;;18.82;100.00;101076.31;3583943;39;20063;-64
2021/07/14 02:19:13;;;;;;;30.05;21.17;;;;;;;18.78;100.00;101077.72;3586567;39;20285;-64
2021/07/14 02:21:40;;;;;;;32.50;22.92;;;;;;;18.76;100.00;101077.06;3591022;39;20281;-63
2021/07/14 02:24:10;;;;;;;31.63;22.30;;;;;;;18.80;100.00;101072.94;3591790;39;20076;-63
2021/07/14 02:26:36;;;;;;;30.42;22.70;;;;;;;18.76;100.00;101081.66;3589004;39;20046;-64
2021/07/14 02:29:04;;;;;;;29.88;21.92;;;;;;;18.76;100.00;101077.06;3585775;39;20029;-63
2021/07/14 02:31:31;;;;;;;30.48;21.42;;;;;;;18.76;100.00;101077.06;3586829;39;20057;-64
2021/07/14 02:33:57;;;;;;;33.63;23.67;;;;;;;18.72;100.00;101068.38;3588440;39;20098;-64
2021/07/14 02:36:27;;;;;;;30.77;22.80;;;;;;;18.74;100.00;101073.66;3584935;39;20090;-64
2021/07/14 02:38:57;;;;;;;31.73;23.73;;;;;;;18.71;100.00;101063.13;3585658;39;20394;-63
2021/07/14 02:41:29;;;;;;;28.02;21.05;;;;;;;18.69;100.00;101076.94;3585124;39;20043;-64
2021/07/14 02:43:58;;;;;;;30.60;22.30;;;;;;;18.68;100.00;101082.56;3585425;39;20065;-63
2021/07/14 02:46:29;;;;;;;36.67;23.55;;;;;;;18.76;100.00;101068.88;3586274;39;20144;-64
2021/07/14 02:49:00;;;;;;;30.58;22.75;;;;;;;18.75;100.00;101067.19;3585153;39;20044;-63
2021/07/14 02:51:31;;;;;;;30.10;22.40;;;;;;;18.73;100.00;101064.63;3585248;39;20063;-64
2021/07/14 02:54:01;;;;;;;35.50;24.27;;;;;;;18.71;100.00;101065.84;3590447;39;20036;-64
2021/07/14 02:56:30;;;;;;;30.42;22.50;;;;;;;18.71;100.00;101057.66;3590710;39;20518;-65
2021/07/14 02:59:03;;;;;;;31.02;21.67;;;;;;;18.72;100.00;101049.31;3591196;39;20066;-64
2021/07/14 03:01:31;;;;;;;30.40;20.35;;;;;;;18.65;100.00;101047.50;3585677;39;20384;-63
2021/07/14 03:03:59;;;;;;;31.93;21.13;;;;;;;18.54;100.00;101057.81;3587922;39;20318;-64
2021/07/14 03:06:29;;;;;;;30.80;21.52;;;;;;;18.60;100.00;101066.31;3591852;39;20314;-64
2021/07/14 03:09:03;;;;;;;33.33;22.35;;;;;;;18.58;100.00;101068.34;3590298;39;20368;-64
2021/07/14 03:11:30;;;;;;;31.92;21.45;;;;;;;18.51;100.00;101066.38;3590763;39;20112;-63
2021/07/14 03:13:57;;;;;;;30.38;20.58;;;;;;;18.58;100.00;101058.31;3590622;39;20124;-64
2021/07/14 03:16:24;;;;;;;30.70;21.27;;;;;;;18.58;100.00;101057.44;3585752;39;20060;-64
2021/07/14 03:18:51;;;;;;;29.63;21.33;;;;;;;18.55;100.00;101059.53;3591753;39;20071;-64
2021/07/14 03:21:19;;;;;;;31.13;21.85;;;;;;;18.53;100.00;101072.47;3590526;39;20046;-64
2021/07/14 03:23:47;;;;;;;32.22;22.88;;;;;;;18.49;100.00;101063.00;3586041;39;20576;-64
2021/07/14 03:26:16;;;;;;;30.23;21.17;;;;;;;18.51;100.00;101071.81;3584973;39;20064;-63
2021/07/14 03:28:43;;;;;;;;;;;;;;;18.51;100.00;101068.25;3585895;39;20062;-63
2021/07/14 03:31:13;;;;;;;26.25;20.88;;;;;;;18.51;100.00;101076.44;3587505;39;19955;-63
2021/07/14 03:33:42;;;;;;;32.45;22.42;;;;;;;18.53;100.00;101069.75;3584830;39;20048;-65
2021/07/14 03:36:09;;;;;;;26.58;21.10;;;;;;;18.63;100.00;101069.50;3587917;39;20071;-64
2021/07/14 03:38:37;;;;;;;29.38;20.33;;;;;;;18.53;100.00;101069.75;3585823;39;20061;-64
2021/07/14 03:41:05;;;;;;;33.50;21.00;;;;;;;18.48;100.00;101068.63;3589178;39;20077;-64
2021/07/14 03:43:34;;;;;;;26.85;21.80;;;;;;;18.47;100.00;101062.31;3586534;39;20373;-65
2021/07/14 03:46:01;;;;;;;;;;;;;;;18.42;100.00;101059.31;3589786;39;20048;-64
2021/07/14 03:48:30;;;;;;;27.23;20.20;;;;;;;18.38;100.00;101060.69;3585974;39;20183;-64
2021/07/14 03:50:57;;;;;;;30.20;20.38;;;;;;;18.38;100.00;101057.97;3588166;39;20375;-64
2021/07/14 03:53:24;;;;;;;26.95;20.38;;;;;;;18.46;100.00;101057.91;3586819;39;20047;-66
2021/07/14 03:55:52;;;;;;;26.13;19.88;;;;;;;18.47;100.00;101051.41;3591565;39;20424;-64
2021/07/14 03:58:21;;;;;;;32.30;21.27;;;;;;;18.43;100.00;101055.53;3590560;39;20040;-64
2021/07/14 04:00:50;;;;;;;29.48;21.20;;;;;;;18.44;100.00;101059.13;3583887;39;20052;-63
2021/07/14 04:03:21;;;;;;;;;;;;;;;18.42;100.00;101053.84;3588857;39;20056;-64
2021/07/14 04:05:50;;;;;;;33.60;21.45;;;;;;;18.46;100.00;101052.47;3590013;39;19943;-62
2021/07/14 04:08:20;;;;;;;;;;;;;;;18.53;100.00;101053.38;3586442;39;20047;-62
2021/07/14 04:10:47;;;;;;;29.30;21.38;;;;;;;18.53;100.00;101052.56;3590154;39;20387;-64
2021/07/14 04:13:13;;;;;;;28.75;20.40;;;;;;;18.53;100.00;101049.84;3590113;39;20048;-62
2021/07/14 04:15:40;;;;;;;30.77;20.63;;;;;;;18.51;100.00;101047.28;3586534;39;20048;-63
2021/07/14 04:18:11;;;;;;;30.60;19.83;;;;;;;18.53;100.00;101042.50;3585083;39;20097;-63
2021/07/14 04:20:38;;;;;;;29.98;20.02;;;;;;;18.55;100.00;101043.16;3588492;39;20044;-63
2021/07/14 04:23:04;;;;;;;29.27;20.05;;;;;;;18.63;100.00;101049.59;3587435;39;20316;-62
2021/07/14 04:25:31;;;;;;;28.05;20.45;;;;;;;18.59;100.00;101031.91;3585381;39;20326;-63
2021/07/14 04:27:57;;;;;;;27.48;19.08;;;;;;;18.60;100.00;101039.88;3586359;39;20058;-63
2021/07/14 04:30:24;;;;;;;27.33;18.65;;;;;;;18.67;100.00;101037.28;3587503;39;20036;-63
2021/07/14 04:32:50;;;;;;;28.05;20.17;;;;;;;18.74;100.00;101039.06;3593020;39;20048;-62
2021/07/14 04:35:18;;;;;;;24.45;19.60;;;;;;;18.78;100.00;101035.97;3587675;39;20451;-64
2021/07/14 04:37:47;;;;;;;30.75;20.30;;;;;;;18.67;100.00;101034.56;3588844;39;20109;-63
2021/07/14 04:40:13;;;;;;;28.80;20.42;;;;;;;18.72;100.00;101035.66;3586109;39;20420;-63
2021/07/14 04:42:40;;;;;;;29.80;20.30;;;;;;;18.79;100.00;101043.97;3590691;39;20041;-64
2021/07/14 04:45:09;;;;;;;28.65;19.42;;;;;;;18.82;100.00;101040.88;3587962;39;20044;-62
2021/07/14 04:47:35;;;;;;;29.08;21.17;;;;;;;18.83;100.00;101036.25;3589113;39;20058;-63
2021/07/14 04:50:02;;;;;;;29.92;20.23;;;;;;;18.85;100.00;101037.75;3590873;39;20379;-63
2021/07/14 04:52:30;;;;;;;32.92;20.98;;;;;;;18.93;100.00;101041.47;3593281;39;20052;-63
2021/07/14 04:54:56;;;;;;;29.63;20.35;;;;;;;18.86;100.00;101034.03;3589523;39;20044;-63
2021/07/14 04:57:22;;;;;;;26.67;18.48;;;;;;;18.87;100.00;101040.34;3592895;39;20049;-63
2021/07/14 04:59:49;;;;;;;27.42;20.10;;;;;;;18.97;100.00;101045.53;3591469;39;20054;-63
2021/07/14 05:02:15;;;;;;;30.10;20.80;;;;;;;18.94;100.00;101040.44;3584846;39;20840;-63
2021/07/14 05:04:42;;;;;;;30.30;19.95;;;;;;;18.96;100.00;101038.38;3586684;39;20113;-63
2021/07/14 05:07:08;;;;;;;27.58;18.70;;;;;;;18.95;100.00;101053.03;3582729;39;20815;-62
2021/07/14 05:09:36;;;;;;;31.80;21.27;;;;;;;18.96;100.00;101054.72;3590685;39;20394;-63
2021/07/14 05:12:03;;;;;;;30.92;19.88;;;;;;;18.93;100.00;101055.09;3588191;39;20064;-64
2021/07/14 05:14:29;;;;;;;30.73;21.73;;;;;;;18.84;100.00;101063.31;3588004;39;20087;-63
2021/07/14 05:16:55;;;;;;;32.10;21.25;;;;;;;18.89;100.00;101065.56;3589083;39;21338;-63
2021/07/14 05:19:22;;;;;;;32.25;21.08;;;;;;;18.85;100.00;101064.19;3593295;39;20050;-63
2021/07/14 05:21:48;;;;;;;29.17;20.48;;;;;;;18.86;100.00;101055.84;3593128;39;20040;-64
2021/07/14 05:24:15;;;;;;;29.83;19.20;;;;;;;18.84;100.00;101057.03;3588139;39;20043;-63
2021/07/14 05:26:43;;;;;;;30.67;21.90;;;;;;;18.91;100.00;101058.88;3589264;39;20055;-63
2021/07/14 05:29:09;;;;;;;31.05;20.15;;;;;;;18.86;100.00;101058.59;3591028;39;20046;-63
2021/07/14 05:31:35;;;;;;;29.08;21.50;;;;;;;18.86;100.00;101060.44;3591290;39;20043;-63
2021/07/14 05:34:02;;;;;;;31.38;20.85;;;;;;;18.77;100.00;101065.13;3594230;39;20040;-63
2021/07/14 05:36:28;;;;;;;32.30;21.85;;;;;;;18.73;100.00;101061.06;3595337;39;20048;-62
2021/07/14 05:38:58;;;;;;;32.53;22.33;;;;;;;18.80;100.00;101072.94;3588311;39;20383;-63
2021/07/14 05:41:25;;;;;;;32.03;21.05;;;;;;;18.84;100.00;101071.50;3585223;39;20051;-63
2021/07/14 05:43:54;;;;;;;30.23;20.52;;;;;;;18.88;100.00;101070.16;3589638;39;20207;-63
2021/07/14 05:46:21;;;;;;;34.88;22.40;;;;;;;18.84;100.00;101066.06;3590288;39;20067;-62
2021/07/14 05:48:48;;;;;;;31.95;20.70;;;;;;;18.98;100.00;101063.59;3593140;39;20321;-62
2021/07/14 05:51:15;;;;;;;35.33;22.15;;;;;;;18.97;100.00;101065.44;3592461;39;20488;-63
2021/07/14 05:53:41;;;;;;;37.33;22.05;;;;;;;18.95;100.00;101064.81;3591757;39;20032;-63
2021/07/14 05:56:08;;;;;;;36.05;23.23;;;;;;;18.87;100.00;101060.28;3589613;39;20054;-63
2021/07/14 05:58:34;;;;;;;37.45;24.05;;;;;;;18.90;100.00;101068.09;3595318;39;20131;-63
2021/07/14 06:01:02;;;;;;;36.67;24.08;;;;;;;18.90;100.00;101068.09;3599933;39;20057;-63
2021/07/14 06:03:28;;;;;;;34.83;21.98;;;;;;;18.87;100.00;101063.03;3598129;39;20064;-64
2021/07/14 06:05:55;;;;;;;36.10;23.45;;;;;;;18.94;100.00;101067.72;3598384;39;20054;-64
2021/07/14 06:08:21;;;;;;;35.78;21.52;;;;;;;18.96;100.00;101062.91;3599137;39;20068;-63
2021/07/14 06:10:48;;;;;;;36.35;23.08;;;;;;;18.88;100.00;101067.41;3599786;39;20044;-63
2021/07/14 06:13:15;;;;;;;38.38;23.73;;;;;;;18.80;100.00;101067.47;3599090;39;20038;-64
2021/07/14 06:15:42;;;;;;;34.78;21.98;;;;;;;18.80;100.00;101072.94;3596385;39;20080;-62
2021/07/14 06:18:10;;;;;;;35.22;21.52;;;;;;;18.82;100.00;101070.84;3596126;39;20032;-63
2021/07/14 06:20:37;;;;;;;37.63;23.40;;;;;;;18.85;100.00;101075.94;3594112;39;20035;-62
2021/07/14 06:23:04;;;;;;;36.70;23.95;;;;;;;18.81;100.00;101077.34;3597853;39;20040;-62
2021/07/14 06:25:30;;;;;;;38.38;23.23;;;;;;;18.78;100.00;101079.59;3599155;39;20046;-64
2021/07/14 06:27:58;;;;;;;42.55;24.50;;;;;;;18.86;100.00;101076.81;3596064;39;20409;-64
2021/07/14 06:30:25;;;;;;;40.45;23.65;;;;;;;18.84;100.00;101082.41;3589081;40;20044;-63
2021/07/14 06:32:52;;;;;;;39.35;24.27;;;;;;;18.80;100.00;101078.41;3595404;39;20032;-62
2021/07/14 06:35:22;;;;;;;34.53;23.05;;;;;;;18.87;100.00;101079.38;3592980;40;20024;-63
2021/07/14 06:37:50;;;;;;;41.70;23.95;;;;;;;19.00;100.00;101083.34;3594449;40;20364;-62
2021/07/14 06:40:16;;;;;;;38.42;23.33;;;;;;;18.97;100.00;101094.63;3593259;39;20032;-63
2021/07/14 06:42:43;;;;;;;37.10;24.65;;;;;;;18.91;100.00;101082.56;3596787;40;20039;-61
2021/07/14 06:45:12;;;;;;;36.25;23.70;;;;;;;18.97;100.00;101089.16;3596190;39;20029;-61
2021/07/14 06:47:39;;;;;;;36.55;24.05;;;;;;;18.90;100.00;101095.38;3597443;40;20039;-63
2021/07/14 06:50:06;;;;;;;38.15;22.52;;;;;;;18.98;100.00;101105.34;3595959;39;20035;-63
2021/07/14 06:52:34;;;;;;;35.05;22.88;;;;;;;18.96;100.00;101099.22;3597590;40;20048;-62
2021/07/14 06:55:01;;;;;;;32.88;20.80;;;;;;;18.99;100.00;101092.53;3597014;40;20489;-62
2021/07/14 06:57:27;;;;;;;35.28;22.52;;;;;;;18.93;100.00;101087.84;3594400;39;20046;-63
2021/07/14 06:59:54;;;;;;;37.42;22.77;;;;;;;18.85;100.00;101083.28;3596001;40;20050;-63
2021/07/14 07:02:20;;;;;;;32.45;21.35;;;;;;;18.91;100.00;101097.03;3595019;40;20040;-62
2021/07/14 07:04:47;;;;;;;30.48;21.05;;;;;;;18.91;100.00;101101.66;3595768;40;20082;-62
2021/07/14 07:07:13;;;;;;;28.30;19.77;;;;;;;18.88;100.00;101108.31;3594436;39;20040;-62
2021/07/14 07:09:41;;;;;;;29.80;19.90;;;;;;;18.86;100.00;101094.03;3601123;39;20047;-62
2021/07/14 07:12:08;;;;;;;28.17;19.25;;;;;;;18.77;100.00;101103.31;3597892;39;20032;-61
2021/07/14 07:14:34;;;;;;;30.48;19.77;;;;;;;18.68;100.00;101107.97;3598748;39;20307;-62
2021/07/14 07:17:01;;;;;;;32.65;20.88;;;;;;;18.74;100.00;101111.81;3598281;39;20028;-63
2021/07/14 07:19:27;;;;;;;28.42;20.52;;;;;;;18.79;100.00;101112.13;3599500;39;20050;-63
2021/07/14 07:21:53;;;;;;;31.88;21.25;;;;;;;18.83;100.00;101102.56;3599575;39;20062;-63
2021/07/14 07:24:20;;;;;;;33.17;21.15;;;;;;;18.75;100.00;101108.06;3598957;39;20036;-63
2021/07/14 07:26:48;;;;;;;26.25;19.58;;;;;;;18.76;100.00;101104.31;3596999;39;20060;-64
2021/07/14 07:29:15;;;;;;;32.42;20.60;;;;;;;18.76;100.00;101103.47;3595185;39;20048;-63
2021/07/14 07:31:41;;;;;;;30.63;21.52;;;;;;;18.86;100.00;101085.84;3599379;39;20028;-63
2021/07/14 07:34:08;;;;;;;29.20;19.80;;;;;;;18.93;100.00;101083.22;3601858;39;20062;-63
2021/07/14 07:36:35;;;;;;;29.10;20.65;;;;;;;18.91;100.00;101091.59;3600368;39;20042;-63
2021/07/14 07:39:01;;;;;;;30.15;21.85;;;;;;;19.13;100.00;101086.25;3598528;39;20058;-63
2021/07/14 07:41:28;;;;;;;26.63;19.67;;;;;;;19.16;100.00;101083.16;3599383;39;20038;-63
2021/07/14 07:43:56;;;;;;;30.15;20.67;;;;;;;19.22;100.00;101082.41;3595695;39;20405;-64
2021/07/14 07:46:23;;;;;;;25.77;19.95;;;;;;;19.29;100.00;101077.06;3596881;39;20388;-63
2021/07/14 07:48:50;;;;;;;30.10;20.65;;;;;;;19.12;100.00;101086.44;3598297;39;20038;-63
2021/07/14 07:51:16;;;;;;;32.22;21.58;;;;;;;19.11;100.00;101082.88;3598255;39;20112;-63
2021/07/14 07:53:43;;;;;;;30.63;22.30;;;;;;;19.09;100.00;101082.22;3596420;39;20054;-63
2021/07/14 07:56:09;;;;;;;31.10;22.15;;;;;;;19.09;100.00;101079.47;3595387;39;20058;-62
2021/07/14 07:58:36;;;;;;;34.78;22.05;;;;;;;19.12;100.00;101073.66;3580779;39;20287;-63
2021/07/14 08:01:04;;;;;;;30.88;21.60;;;;;;;19.25;100.00;101082.03;3579390;39;20036;-64
2021/07/14 08:03:33;;;;;;;28.17;21.00;;;;;;;19.31;100.00;101079.59;3584430;39;20034;-64
2021/07/14 08:06:00;;;;;;;28.83;21.05;;;;;;;19.45;100.00;101081.47;3586301;39;21538;-63
2021/07/14 08:08:28;;;;;;;30.63;22.08;;;;;;;19.29;100.00;101082.50;3581056;39;20048;-63
2021/07/14 08:10:56;;;;;;;31.25;22.17;;;;;;;19.38;100.00;101069.63;3580905;39;20349;-63
2021/07/14 08:13:25;;;;;;;30.58;21.40;;;;;;;19.47;100.00;101065.75;3580217;39;20036;-63
2021/07/14 08:15:51;;;;;;;27.98;20.30;;;;;;;19.43;100.00;101064.41;3582139;39;20047;-63
2021/07/14 08:18:19;;;;;;;32.10;21.65;;;;;;;19.24;100.00;101066.72;3593731;39;20031;-62
2021/07/14 08:20:46;;;;;;;32.17;22.13;;;;;;;19.08;100.00;101075.91;3579456;39;20105;-64
2021/07/14 08:23:13;;;;;;;32.38;22.30;;;;;;;19.06;100.00;101071.69;3589032;39;20338;-63
2021/07/14 08:25:40;;;;;;;34.45;22.65;;;;;;;19.23;100.00;101073.19;3586643;39;20054;-62
2021/07/14 08:28:06;;;;;;;31.80;22.30;;;;;;;19.20;100.00;101068.09;3580798;39;20387;-63
2021/07/14 08:30:35;;;;;;;34.50;22.23;;;;;;;19.19;100.00;101066.41;3588036;39;20105;-63
2021/07/14 08:33:01;;;;;;;30.27;20.73;;;;;;;19.31;100.00;101072.25;3587833;39;20427;-64
2021/07/14 08:35:29;;;;;;;32.72;22.30;;;;;;;19.33;100.00;101070.19;3589258;39;20143;-63
2021/07/14 08:37:55;;;;;;;30.92;21.83;;;;;;;19.30;100.00;101061.50;3583625;39;20048;-63
2021/07/14 08:40:22;;;;;;;33.30;20.98;;;;;;;19.39;100.00;101071.28;3586296;39;20079;-62
2021/07/14 08:42:50;;;;;;;32.55;19.85;;;;;;;19.51;100.00;101058.88;3584740;39;20062;-63
2021/07/14 08:45:19;;;;;;;30.52;20.05;;;;;;;19.89;100.00;101066.94;3584929;39;20068;-62
2021/07/14 08:47:46;;;;;;;31.52;21.60;;;;;;;19.82;100.00;101059.66;3585764;39;20040;-62
2021/07/14 08:50:15;;;;;;;31.83;21.85;;;;;;;19.99;100.00;101054.84;3586584;39;20048;-62
2021/07/14 08:52:47;;;;;;;34.95;23.77;;;;;;;19.95;100.00;101059.84;3590038;39;20386;-63
2021/07/14 08:58:28;;;;;;;31.75;22.90;;;;;;;19.82;100.00;101067.88;3613803;23;20064;-62
2021/07/14 09:01:01;;;;;;;35.53;23.70;;;;;;;19.83;100.00;101061.38;3584815;39;20036;-63
2021/07/14 09:03:29;;;;;;;39.40;24.58;;;;;;;19.65;100.00;101075.41;3580383;39;20052;-62
2021/07/14 09:05:55;;;;;;;39.85;26.55;;;;;;;19.53;100.00;101067.69;3584991;39;20137;-62
2021/07/14 09:08:23;;;;;;;38.50;25.17;;;;;;;19.68;100.00;101069.56;3581689;39;20500;-62
2021/07/14 09:10:50;;;;;;;38.30;24.45;;;;;;;19.76;100.00;101061.28;3583256;39;20040;-63
2021/07/14 09:13:17;;;;;;;37.88;24.33;;;;;;;19.90;100.00;101071.31;3583135;39;20039;-63
2021/07/14 09:15:47;;;;;;;42.53;25.08;;;;;;;19.94;100.00;101064.44;3580092;39;20379;-63
2021/07/14 09:18:15;;;;;;;35.50;23.88;;;;;;;20.06;100.00;101066.69;3580095;39;20067;-62
2021/07/14 09:20:43;;;;;;;39.40;23.23;;;;;;;20.06;100.00;101072.16;3583980;39;20117;-62
2021/07/14 09:23:12;;;;;;;41.15;23.52;;;;;;;19.78;100.00;101070.16;3582590;39;20032;-62
2021/07/14 09:25:43;;;;;;;33.85;22.10;;;;;;;19.70;100.00;101064.75;3587576;39;20032;-63
2021/07/14 09:28:11;;;;;;;32.28;22.42;;;;;;;19.75;100.00;101075.97;3585792;39;20035;-63
2021/07/14 09:30:40;;;;;;;36.40;22.38;;;;;;;19.71;100.00;101074.66;3579554;39;20379;-62
2021/07/14 09:33:10;;;;;;;31.92;22.23;;;;;;;19.54;100.00;101074.88;3584218;39;20039;-63
2021/07/14 09:35:41;;;;;;;37.67;23.15;;;;;;;19.50;100.00;101073.56;3582690;39;20451;-63
2021/07/14 09:38:10;;;;;;;41.13;25.25;;;;;;;19.57;100.00;101066.28;3581895;39;20117;-63
2021/07/14 09:40:37;;;;;;;;;;;;;;;19.66;100.00;101066.19;3582251;39;20378;-62
2021/07/14 09:43:09;;;;;;;37.95;24.35;;;;;;;19.46;100.00;101071.38;3583171;39;19932;-62
2021/07/14 09:45:45;;;;;;;34.70;23.75;;;;;;;19.37;100.00;101067.91;3581154;39;20050;-63
2021/07/14 09:48:14;;;;;;;37.70;23.58;;;;;;;19.33;100.00;101080.25;3579445;39;20282;-62
2021/07/14 09:50:43;;;;;;;39.42;24.45;;;;;;;19.19;100.00;101066.41;3581949;39;20039;-63
2021/07/14 09:53:11;;;;;;;;;;;;;;;19.20;100.00;101070.84;3581110;39;20036;-62
2021/07/14 09:55:41;;;;;;;38.75;23.38;;;;;;;19.22;100.00;101076.94;3581855;39;19947;-65
2021/07/14 09:58:12;;;;;;;43.70;26.23;;;;;;;19.31;100.00;101074.13;3583782;39;21202;-64
2021/07/14 10:00:40;;;;;;;41.10;24.00;;;;;;;19.30;100.00;101080.63;3588402;39;20054;-65
2021/07/14 10:03:07;;;;;;;40.85;23.33;;;;;;;19.27;100.00;101081.84;3594465;39;20062;-63
2021/07/14 10:05:34;;;;;;;36.25;23.30;;;;;;;19.22;100.00;101081.56;3592416;39;20040;-63
2021/07/14 10:08:18;;;;;;;36.85;21.10;;;;;;;19.21;100.00;101079.88;3593332;39;20068;-64
2021/07/14 10:10:45;;;;;;;46.90;24.42;;;;;;;19.17;100.00;101087.59;3597518;39;20052;-63
2021/07/14 10:13:13;;;;;;;37.08;21.95;;;;;;;19.20;100.00;101083.66;3595327;39;20036;-62
2021/07/14 10:15:40;;;;;;;37.25;22.33;;;;;;;19.12;100.00;101087.28;3594278;39;20072;-61
2021/07/14 10:18:11;;;;;;;43.50;23.75;;;;;;;19.14;100.00;101084.38;3592912;39;20030;-63
2021/07/14 10:20:40;;;;;;;45.30;23.45;;;;;;;19.22;100.00;101082.41;3591566;39;20090;-65
2021/07/14 10:23:09;;;;;;;38.50;22.30;;;;;;;19.15;100.00;101091.53;3593141;39;20058;-63
2021/07/14 10:25:37;;;;;;;40.80;23.95;;;;;;;19.18;100.00;101086.53;3590106;39;20029;-63
2021/07/14 10:28:07;;;;;;;41.97;24.35;;;;;;;19.14;100.00;101090.69;3593070;39;20371;-62
2021/07/14 10:30:34;;;;;;;40.30;24.52;;;;;;;19.15;100.00;101097.81;3590300;39;20071;-64
2021/07/14 10:33:01;;;;;;;39.10;22.30;;;;;;;19.18;100.00;101105.63;3588199;39;20333;-66
2021/07/14 10:35:31;;;;;;;43.78;24.13;;;;;;;19.10;100.00;101089.38;3591692;39;20116;-61
2021/07/14 10:38:00;;;;;;;37.50;22.83;;;;;;;19.03;100.00;101091.97;3590688;39;20093;-62
2021/07/14 10:40:27;;;;;;;38.60;24.15;;;;;;;19.17;100.00;101095.78;3592767;39;20047;-62
2021/07/14 10:42:55;;;;;;;37.78;22.65;;;;;;;19.20;100.00;101089.94;3589290;39;20036;-64
2021/07/14 10:45:22;;;;;;;41.38;21.90;;;;;;;19.09;100.00;101101.31;3589244;39;20399;-64
2021/07/14 10:47:53;;;;;;;40.22;22.00;;;;;;;19.12;100.00;101092.75;3592078;39;20049;-63
2021/07/14 10:50:21;;;;;;;32.65;21.42;;;;;;;19.19;100.00;101099.16;3590047;39;20039;-63
2021/07/14 10:52:47;;;;;;;37.67;21.85;;;;;;;19.24;100.00;101096.72;3591951;39;20375;-63
2021/07/14 10:55:20;;;;;;;30.48;19.77;;;;;;;19.38;100.00;101096.91;3594204;39;20036;-62
2021/07/14 10:57:47;;;;;;;33.53;21.05;;;;;;;19.24;100.00;101102.19;3593218;39;20388;-66
2021/07/14 11:00:14;;;;;;;29.70;20.67;;;;;;;19.25;100.00;101090.22;3594335;39;20374;-65
2021/07/14 11:02:46;;;;;;;35.75;20.30;;;;;;;19.22;100.00;101101.50;3590062;39;20128;-63
2021/07/14 11:05:15;;;;;;;27.65;18.45;;;;;;;19.34;100.00;101101.03;3591092;39;20125;-62
2021/07/14 11:07:43;;;;;;;;;;;;;;;19.34;100.00;101107.34;3588152;39;20043;-66
2021/07/14 11:10:24;;;;;;;31.60;20.57;;;;;;;19.35;100.00;101091.84;3592265;39;19943;-63
2021/07/14 11:12:51;;;;;;;29.88;19.25;;;;;;;19.50;100.00;101108.19;3593442;39;20263;-63
2021/07/14 11:17:44;;;;;;;33.72;20.27;;;;;;;19.55;100.00;101108.47;3616899;22;20392;-62
2021/07/14 11:20:16;;;;;;;29.27;18.08;;;;;;;19.66;100.00;101105.25;3595025;40;20040;-65
2021/07/14 11:22:45;;;;;;;25.67;17.98;;;;;;;19.63;100.00;101110.28;3597723;40;20116;-63
2021/07/14 11:25:26;;;;;;;28.13;17.83;;;;;;;19.55;100.00;101109.34;3597480;40;20396;-63